createdAt,value
2018-11-23T00:02:57.448Z,36.40
2018-11-23T00:05:44.771Z,34.23
2018-11-23T00:08:13.078Z,34.37
2018-11-23T00:11:00.393Z,35.60
2018-11-23T00:13:28.659Z,40.47
2018-11-23T00:16:15.998Z,35.00
2018-11-23T00:19:03.354Z,44.00
2018-11-23T00:21:31.589Z,50.57
2018-11-23T00:24:18.939Z,36.10
2018-11-23T00:27:06.276Z,40.43
2018-11-23T00:29:34.609Z,44.13
2018-11-23T00:32:21.942Z,41.93
2018-11-23T00:35:09.328Z,33.73
2018-11-23T00:37:37.566Z,36.87
2018-11-23T00:40:26.707Z,37.33
2018-11-23T00:43:14.068Z,43.80
2018-11-23T00:48:29.779Z,41.43
2018-11-23T00:51:17.112Z,35.63
2018-11-23T00:54:04.484Z,39.17
2018-11-23T00:56:32.726Z,39.97
2018-11-23T00:59:20.055Z,41.97
2018-11-23T01:02:07.377Z,36.10
2018-11-23T01:04:36.640Z,35.07
2018-11-23T01:07:05.330Z,36.40
2018-11-23T01:09:33.574Z,37.30
2018-11-23T01:12:20.905Z,41.17
2018-11-23T01:17:36.422Z,48.33
2018-11-23T01:20:05.248Z,35.80
2018-11-23T01:22:33.457Z,32.60
2018-11-23T01:25:20.802Z,45.07
2018-11-23T01:27:50.301Z,39.83
2018-11-23T01:30:38.428Z,35.97
2018-11-23T01:33:06.671Z,35.87
2018-11-23T01:35:54.001Z,41.30
2018-11-23T01:38:41.345Z,39.40
2018-11-23T01:43:56.141Z,41.07
2018-11-23T01:46:43.480Z,45.57
2018-11-23T01:49:30.818Z,44.40
2018-11-23T01:51:59.079Z,40.10
2018-11-23T01:54:46.416Z,54.77
2018-11-23T01:57:33.748Z,43.97
2018-11-23T02:02:50.149Z,51.93
2018-11-23T02:05:37.487Z,49.77
2018-11-23T02:08:25.659Z,62.30
2018-11-23T02:13:40.439Z,66.07
2018-11-23T02:16:27.766Z,59.70
2018-11-23T02:18:55.984Z,69.03
2018-11-23T02:24:11.639Z,67.93
2018-11-23T02:26:58.968Z,63.67
2018-11-23T02:29:27.211Z,64.10
2018-11-23T02:32:14.535Z,62.60
2018-11-23T02:35:01.831Z,60.00
2018-11-23T02:40:18.658Z,62.23
2018-11-23T02:43:05.961Z,54.33
2018-11-23T02:45:53.304Z,49.13
2018-11-23T02:51:13.945Z,58.07
2018-11-23T02:54:01.259Z,56.17
2018-11-23T02:56:54.829Z,67.40
2018-11-23T03:02:15.870Z,62.50
2018-11-23T03:05:03.762Z,56.83
2018-11-23T03:07:51.108Z,72.70
2018-11-23T03:13:12.222Z,63.63
2018-11-23T03:15:59.559Z,54.63
2018-11-23T03:18:46.873Z,66.17
2018-11-23T03:24:02.196Z,60.23
2018-11-23T03:26:49.523Z,65.17
2018-11-23T03:29:36.848Z,82.53
2018-11-23T03:34:52.516Z,70.13
2018-11-23T03:37:39.874Z,62.47
2018-11-23T03:43:01.405Z,74.83
2018-11-23T03:45:48.718Z,63.73
2018-11-23T03:48:36.058Z,64.47
2018-11-23T03:51:04.545Z,74.73
2018-11-23T03:53:32.778Z,74.77
2018-11-23T03:56:20.075Z,67.27
2018-11-23T03:59:07.425Z,71.53
2018-11-23T04:01:35.689Z,64.67
2018-11-23T04:04:03.907Z,71.40
2018-11-23T04:06:51.260Z,72.33
2018-11-23T04:09:19.493Z,61.10
2018-11-23T04:12:06.848Z,63.10
2018-11-23T04:14:35.074Z,76.27
2018-11-23T04:17:03.282Z,68.67
2018-11-23T04:19:50.614Z,67.60
2018-11-23T04:22:37.965Z,68.57
2018-11-23T04:27:59.032Z,78.37
2018-11-23T04:30:46.356Z,68.53
2018-11-23T04:33:14.615Z,64.60
2018-11-23T04:35:42.833Z,86.63
2018-11-23T04:38:11.078Z,81.93
2018-11-23T04:40:39.301Z,60.87
2018-11-23T04:43:26.618Z,69.07
2018-11-23T04:45:54.853Z,58.87
2018-11-23T04:48:23.117Z,70.60
2018-11-23T04:50:58.889Z,63.20
2018-11-23T04:53:46.221Z,64.73
2018-11-23T04:59:07.676Z,71.70
2018-11-23T05:01:54.998Z,62.77
2018-11-23T05:04:43.456Z,71.43
2018-11-23T05:10:05.647Z,64.43
2018-11-23T05:12:52.976Z,67.57
2018-11-23T05:15:21.221Z,72.80
2018-11-23T05:17:49.429Z,75.20
2018-11-23T05:20:17.879Z,69.13
2018-11-23T05:22:46.315Z,67.07
2018-11-23T05:25:15.949Z,67.87
2018-11-23T05:28:03.284Z,74.10
2018-11-23T05:30:50.641Z,72.17
2018-11-23T05:36:11.797Z,77.27
2018-11-23T05:38:59.105Z,79.70
2018-11-23T05:41:47.371Z,69.17
2018-11-23T05:47:02.060Z,79.73
2018-11-23T05:49:49.407Z,77.60
2018-11-23T05:52:17.643Z,80.97
2018-11-23T05:55:04.981Z,83.40
2018-11-23T06:00:27.050Z,83.73
2018-11-23T06:03:14.373Z,72.23
2018-11-23T06:06:01.738Z,85.03
2018-11-23T06:08:29.988Z,88.30
2018-11-23T06:10:58.201Z,75.53
2018-11-23T06:13:26.432Z,84.67
2018-11-23T06:15:54.675Z,76.73
2018-11-23T06:18:22.923Z,78.63
2018-11-23T06:20:51.171Z,74.90
2018-11-23T06:23:19.376Z,72.97
2018-11-23T06:26:09.299Z,77.73
2018-11-23T06:28:37.534Z,80.63
2018-11-23T06:31:05.792Z,82.23
2018-11-23T06:33:38.863Z,84.93
2018-11-23T06:36:07.212Z,73.80
2018-11-23T06:38:35.481Z,68.73
2018-11-23T06:41:22.818Z,80.93
2018-11-23T06:43:51.056Z,76.10
2018-11-23T06:46:19.265Z,80.07
2018-11-23T06:49:06.601Z,84.90
2018-11-23T06:51:34.855Z,81.17
2018-11-23T06:54:22.168Z,77.97
2018-11-23T07:02:23.579Z,88.50
2018-11-23T07:04:51.793Z,74.03
2018-11-23T07:07:20.050Z,73.30
2018-11-23T07:10:07.376Z,72.47
2018-11-23T07:12:54.742Z,77.60
2018-11-23T07:18:16.516Z,87.80
2018-11-23T07:21:03.838Z,71.23
2018-11-23T07:23:51.191Z,86.20
2018-11-23T07:29:12.161Z,79.97
2018-11-23T07:31:59.456Z,80.57
2018-11-23T07:34:46.808Z,80.03
2018-11-23T07:40:48.080Z,85.73
2018-11-23T07:43:35.461Z,81.30
2018-11-23T07:48:56.411Z,83.97
2018-11-23T07:51:43.721Z,76.20
2018-11-23T07:54:31.085Z,88.00
2018-11-23T07:56:59.323Z,82.00
2018-11-23T07:59:27.797Z,72.53
2018-11-23T08:01:56.010Z,91.87
2018-11-23T08:04:24.319Z,81.30
2018-11-23T08:06:52.546Z,79.10
2018-11-23T08:09:39.887Z,91.40
2018-11-23T08:12:27.216Z,76.07
2018-11-23T08:14:55.489Z,85.47
2018-11-23T08:17:23.717Z,85.03
2018-11-23T08:20:11.061Z,72.77
2018-11-23T08:22:58.433Z,76.07
2018-11-23T08:28:13.877Z,63.33
2018-11-23T08:30:42.111Z,80.37
2018-11-23T08:33:29.455Z,75.37
2018-11-23T08:36:16.801Z,72.13
2018-11-23T08:38:45.033Z,72.97
2018-11-23T08:41:32.363Z,70.03
2018-11-23T08:44:19.712Z,72.07
2018-11-23T08:49:35.368Z,78.27
2018-11-23T08:52:22.716Z,81.50
2018-11-23T08:54:50.960Z,67.17
2018-11-23T08:57:19.199Z,69.83
2018-11-23T09:00:06.499Z,58.07
2018-11-23T09:05:22.227Z,75.13
2018-11-23T09:08:09.549Z,65.03
2018-11-23T09:10:37.763Z,77.47
2018-11-23T09:13:25.148Z,74.30
2018-11-23T09:16:12.475Z,74.20
2018-11-23T09:24:13.972Z,68.77
2018-11-23T09:27:01.287Z,71.37
2018-11-23T09:29:48.643Z,67.57
2018-11-23T09:35:03.419Z,74.33
2018-11-23T09:37:50.720Z,57.73
2018-11-23T09:40:38.056Z,66.63
2018-11-23T09:43:06.432Z,63.00
2018-11-23T09:45:53.777Z,59.03
2018-11-23T09:48:41.109Z,66.23
2018-11-23T09:53:55.994Z,57.90
2018-11-23T09:56:24.213Z,64.00
2018-11-23T09:59:11.581Z,56.67
2018-11-23T10:01:39.822Z,67.17
2018-11-23T10:04:08.039Z,68.23
2018-11-23T10:06:55.388Z,54.77
2018-11-23T10:12:10.799Z,58.40
2018-11-23T10:14:39.028Z,58.37
2018-11-23T10:17:26.410Z,51.87
2018-11-23T10:20:13.777Z,58.68
2018-11-23T10:25:35.489Z,53.20
2018-11-23T10:28:22.785Z,65.50
2018-11-23T10:30:51.044Z,58.70
2018-11-23T10:33:19.257Z,49.93
2018-11-23T10:36:06.586Z,82.20
2018-11-23T10:41:27.774Z,53.83
2018-11-23T10:43:56.005Z,46.93
2018-11-23T10:46:24.235Z,46.67
2018-11-23T10:49:11.549Z,56.90
2018-11-23T10:51:58.903Z,39.43
2018-11-23T10:57:20.592Z,56.13
2018-11-23T10:59:48.824Z,46.57
2018-11-23T11:02:36.149Z,50.47
2018-11-23T11:05:23.856Z,50.73
2018-11-23T11:07:52.104Z,46.23
2018-11-23T11:10:20.355Z,44.53
2018-11-23T11:12:48.600Z,44.10
2018-11-23T11:15:16.986Z,48.23
2018-11-23T11:17:45.345Z,41.07
2018-11-23T11:20:32.676Z,39.53
2018-11-23T11:23:00.916Z,41.80
2018-11-23T11:25:29.169Z,52.00
2018-11-23T11:27:57.387Z,47.50
2018-11-23T11:30:25.617Z,41.73
2018-11-23T11:33:13.000Z,45.30
2018-11-23T11:38:28.719Z,56.70
2018-11-23T11:41:16.057Z,43.33
2018-11-23T11:44:03.379Z,54.97
2018-11-23T11:46:31.630Z,47.83
2018-11-23T11:48:59.835Z,38.70
2018-11-23T11:51:47.195Z,36.20
2018-11-23T11:54:34.547Z,38.07
2018-11-23T11:59:50.181Z,36.57
2018-11-23T12:02:37.503Z,39.37
2018-11-23T12:05:25.896Z,38.47
2018-11-23T12:07:54.161Z,61.53
2018-11-23T12:13:15.907Z,42.90
2018-11-23T12:16:03.208Z,48.00
2018-11-23T12:21:18.650Z,50.83
2018-11-23T12:23:46.905Z,50.60
2018-11-23T12:26:34.232Z,39.47
2018-11-23T12:29:21.597Z,55.47
2018-11-23T12:34:43.142Z,53.40
2018-11-23T12:37:11.602Z,59.80
2018-11-23T12:39:58.948Z,54.40
2018-11-23T12:42:46.290Z,52.43
2018-11-23T12:48:01.330Z,53.03
2018-11-23T12:50:48.653Z,48.90
2018-11-23T12:53:36.011Z,48.83
2018-11-23T13:01:44.160Z,73.73
2018-11-23T13:04:12.442Z,41.37
2018-11-23T13:06:59.746Z,64.33
2018-11-23T13:09:28.008Z,59.23
2018-11-23T13:12:15.331Z,53.70
2018-11-23T13:17:30.770Z,72.37
2018-11-23T13:20:18.090Z,50.30
2018-11-23T13:23:05.410Z,50.83
2018-11-23T13:25:34.099Z,46.70
2018-11-23T13:28:02.645Z,64.07
2018-11-23T13:30:49.975Z,60.87
2018-11-23T13:33:37.318Z,52.23
2018-11-23T13:38:52.709Z,59.90
2018-11-23T13:41:20.956Z,78.90
2018-11-23T13:44:08.317Z,65.33
2018-11-23T13:46:36.589Z,59.73
2018-11-23T13:49:23.925Z,71.97
2018-11-23T13:54:39.054Z,65.83
2018-11-23T13:57:07.296Z,58.33
2018-11-23T13:59:54.600Z,63.23
2018-11-23T14:02:22.867Z,73.77
2018-11-23T14:04:51.230Z,74.47
2018-11-23T14:07:38.561Z,62.60
2018-11-23T14:10:09.773Z,64.83
2018-11-23T14:12:38.027Z,66.47
2018-11-23T14:15:08.736Z,68.57
2018-11-23T14:17:36.995Z,82.23
2018-11-23T14:20:06.210Z,69.87
2018-11-23T14:22:34.456Z,72.10
2018-11-23T14:25:21.823Z,64.20
2018-11-23T14:27:50.602Z,63.67
2018-11-23T14:30:38.594Z,73.63
2018-11-23T14:33:06.860Z,78.70
2018-11-23T14:35:54.164Z,68.23
2018-11-23T14:38:22.434Z,71.47
2018-11-23T14:40:50.704Z,82.33
2018-11-23T14:43:38.027Z,79.50
2018-11-23T14:48:59.601Z,68.97
2018-11-23T14:51:46.893Z,76.00
2018-11-23T14:54:34.257Z,77.13
2018-11-23T14:57:02.495Z,70.13
2018-11-23T14:59:49.814Z,77.73
2018-11-23T15:02:37.156Z,71.27
2018-11-23T15:05:06.170Z,76.90
2018-11-23T15:07:53.460Z,73.43
2018-11-23T15:10:42.351Z,81.23
2018-11-23T15:15:57.977Z,80.10
2018-11-23T15:18:45.339Z,82.17
2018-11-23T15:21:32.670Z,58.13
2018-11-23T15:24:01.061Z,74.33
2018-11-23T15:26:48.234Z,77.70
2018-11-23T15:29:35.597Z,76.80
2018-11-23T15:32:03.835Z,67.83
2018-11-23T15:34:32.082Z,71.33
2018-11-23T15:37:00.311Z,76.00
2018-11-23T15:39:47.650Z,67.53
2018-11-23T15:42:15.903Z,76.80
2018-11-23T15:45:03.245Z,75.87
2018-11-23T15:50:25.484Z,81.97
2018-11-23T15:52:53.862Z,77.77
2018-11-23T15:55:24.340Z,81.93
2018-11-23T15:57:53.567Z,82.30
2018-11-23T16:00:42.226Z,76.90
2018-11-23T16:03:11.725Z,68.80
2018-11-23T16:05:59.176Z,60.93
2018-11-23T16:11:20.597Z,77.90
2018-11-23T16:13:48.836Z,72.90
2018-11-23T16:16:36.159Z,71.17
2018-11-23T16:21:57.696Z,71.10
2018-11-23T16:24:25.885Z,67.80
2018-11-23T16:27:13.228Z,86.53
2018-11-23T16:30:00.565Z,78.30
2018-11-23T16:35:17.104Z,78.23
2018-11-23T16:37:45.483Z,75.40
2018-11-23T16:40:15.163Z,74.00
2018-11-23T16:43:02.530Z,88.00
2018-11-23T16:45:49.886Z,79.37
2018-11-23T16:48:19.012Z,71.83
2018-11-23T16:50:47.232Z,85.77
2018-11-23T16:53:15.463Z,72.03
2018-11-23T16:55:43.741Z,82.00
2018-11-23T16:58:12.958Z,80.27
2018-11-23T17:01:00.299Z,74.27
2018-11-23T17:03:47.620Z,75.57
2018-11-23T17:06:15.865Z,79.23
2018-11-23T17:08:44.081Z,68.23
2018-11-23T17:11:12.319Z,87.97
2018-11-23T17:13:40.523Z,77.20
2018-11-23T17:16:27.861Z,71.43
2018-11-23T17:19:15.264Z,81.17
2018-11-23T17:24:30.022Z,71.03
2018-11-23T17:26:58.275Z,69.90
2018-11-23T17:29:26.549Z,81.90
2018-11-23T17:31:54.770Z,73.13
2018-11-23T17:34:23.026Z,81.90
2018-11-23T17:37:10.335Z,79.20
2018-11-23T17:39:38.758Z,68.63
2018-11-23T17:42:06.984Z,77.07
2018-11-23T17:44:54.364Z,84.43
2018-11-23T17:50:16.910Z,72.87
2018-11-23T17:53:04.256Z,84.53
2018-11-23T17:55:51.606Z,80.90
2018-11-23T17:58:19.887Z,84.90
2018-11-23T18:01:07.217Z,81.30
2018-11-23T18:03:35.483Z,73.80
2018-11-23T18:06:22.814Z,69.13
2018-11-23T18:08:51.085Z,79.87
2018-11-23T18:11:38.381Z,73.10
2018-11-23T18:14:25.867Z,75.00
2018-11-23T18:19:46.780Z,89.90
2018-11-23T18:22:34.104Z,62.37
2018-11-23T18:25:21.475Z,86.73
2018-11-23T18:30:42.665Z,74.77
2018-11-23T18:33:10.856Z,73.03
2018-11-23T18:35:58.191Z,58.27
2018-11-23T18:38:45.533Z,85.87
2018-11-23T18:44:00.519Z,61.10
2018-11-23T18:46:28.750Z,64.50
2018-11-23T18:48:56.973Z,64.40
2018-11-23T18:51:44.323Z,68.20
2018-11-23T18:54:31.619Z,74.10
2018-11-23T18:56:59.895Z,51.40
2018-11-23T18:59:47.212Z,70.73
2018-11-23T19:05:02.235Z,69.57
2018-11-23T19:07:30.482Z,74.57
2018-11-23T19:09:58.782Z,60.27
2018-11-23T19:12:27.010Z,73.13
2018-11-23T19:15:14.324Z,74.20
2018-11-23T19:18:01.709Z,69.30
2018-11-23T19:23:22.536Z,65.90
2018-11-23T19:25:50.776Z,71.20
2018-11-23T19:28:38.132Z,70.17
2018-11-23T19:31:25.453Z,59.30
2018-11-23T19:36:40.508Z,62.00
2018-11-23T19:39:08.958Z,70.93
2018-11-23T19:41:37.170Z,84.43
2018-11-23T19:44:05.409Z,74.30
2018-11-23T19:46:33.616Z,54.23
2018-11-23T19:49:01.850Z,72.73
2018-11-23T19:51:30.066Z,79.10
2018-11-23T19:54:17.393Z,92.63
2018-11-23T19:56:45.600Z,80.77
2018-11-23T19:59:13.843Z,71.43
2018-11-23T20:02:01.157Z,74.97
2018-11-23T20:04:29.478Z,70.87
2018-11-23T20:07:16.798Z,91.27
2018-11-23T20:12:31.720Z,82.37
2018-11-23T20:15:19.043Z,73.57
2018-11-23T20:18:06.636Z,60.20
2018-11-23T20:20:34.891Z,65.33
2018-11-23T20:23:22.205Z,72.27
2018-11-23T20:25:50.485Z,65.03
2018-11-23T20:28:18.694Z,74.43
2018-11-23T20:30:46.942Z,73.57
2018-11-23T20:33:34.226Z,71.73
2018-11-23T20:38:49.581Z,77.77
2018-11-23T20:41:36.909Z,66.10
2018-11-23T20:44:05.958Z,74.37
2018-11-23T20:46:34.356Z,73.63
2018-11-23T20:49:21.678Z,75.37
2018-11-23T20:51:49.945Z,72.13
2018-11-23T20:54:18.153Z,77.00
2018-11-23T20:57:05.516Z,74.10
2018-11-23T20:59:52.841Z,80.93
2018-11-23T21:05:09.605Z,70.73
2018-11-23T21:07:57.124Z,79.10
2018-11-23T21:10:45.105Z,72.53
2018-11-23T21:16:00.185Z,82.23
2018-11-23T21:18:28.415Z,76.97
2018-11-23T21:21:15.727Z,83.87
2018-11-23T21:24:03.076Z,84.00
2018-11-23T21:29:24.717Z,60.10
2018-11-23T21:32:12.214Z,69.00
2018-11-23T21:34:40.479Z,67.97
2018-11-23T21:37:08.752Z,77.47
2018-11-23T21:39:56.053Z,89.73
2018-11-23T21:42:43.410Z,71.07
2018-11-23T21:45:31.115Z,85.87
2018-11-23T21:47:59.362Z,91.07
2018-11-23T21:50:46.716Z,91.27
2018-11-23T21:53:14.954Z,67.30
2018-11-23T21:55:43.186Z,80.37
2018-11-23T21:58:11.410Z,79.83
2018-11-23T22:00:39.654Z,77.37
2018-11-23T22:03:26.969Z,82.67
2018-11-23T22:06:14.332Z,77.63
2018-11-23T22:14:21.997Z,75.83
2018-11-23T22:16:50.272Z,83.60
2018-11-23T22:19:37.571Z,69.00
2018-11-23T22:22:25.030Z,82.67
2018-11-23T22:24:53.271Z,99.57
2018-11-23T22:27:40.601Z,88.93
2018-11-23T22:30:30.040Z,71.07
2018-11-23T22:35:51.813Z,71.87
2018-11-23T22:38:39.114Z,87.23
2018-11-23T22:41:26.487Z,88.33
2018-11-23T22:46:47.861Z,94.83
2018-11-23T22:49:35.171Z,88.23
2018-11-23T22:52:22.540Z,72.83
2018-11-23T22:55:09.837Z,88.37
2018-11-23T23:00:45.212Z,75.77
2018-11-23T23:03:14.121Z,77.27
2018-11-23T23:05:42.741Z,89.93
2018-11-23T23:08:10.626Z,81.23
2018-11-23T23:10:57.947Z,75.40
2018-11-23T23:16:13.420Z,77.07
2018-11-23T23:19:00.745Z,81.87
2018-11-23T23:21:48.074Z,78.90
2018-11-23T23:24:16.345Z,85.67
2018-11-23T23:26:44.559Z,76.23
2018-11-23T23:29:31.913Z,79.97
2018-11-23T23:32:00.145Z,75.17
2018-11-23T23:34:28.397Z,83.73
2018-11-23T23:36:56.598Z,82.17
2018-11-23T23:39:43.964Z,80.60
2018-11-23T23:45:06.764Z,98.40
2018-11-23T23:47:54.074Z,95.67
2018-11-23T23:50:22.525Z,92.70
2018-11-23T23:53:10.415Z,87.90
2018-11-23T23:58:25.359Z,86.03
